CSC151 ZULS-ZULS
Flight info
| Callsign | CSC151 |
|---|---|
| Flight time | 1h 23m |
| Altitude | 23600 |
| Route | DEP10R IKUBI IKU10A |
| Aircraft | A319/M-SDE3FGHIRWY/LB1 |
Departure
| Time | 2026-04-23 13:56 |
|---|---|
| Airport | Lhasa Gonggar International Airport (ZULS) |
Arrival
| Time | 2026-04-23 15:19 |
|---|---|
| Airport | Lhasa Gonggar International Airport (ZULS) |
| Time | Latitude | Longitude | Altitude | Speed | Heading |
|---|---|---|---|---|---|
| 2026-04-23 13:39 | 29.29421 | 90.89910 | 11451 ft | 0 kts | 181° |
| 2026-04-23 13:49 | 29.29432 | 90.89910 | 11454 ft | 2 kts | 181° |
| 2026-04-23 13:50 | 29.29448 | 90.89910 | 11457 ft | 2 kts | 181° |
| 2026-04-23 13:50 | 29.29465 | 90.89911 | 11456 ft | 2 kts | 181° |
| 2026-04-23 13:50 | 29.29481 | 90.89911 | 11456 ft | 2 kts | 181° |
| 2026-04-23 13:50 | 29.29497 | 90.89912 | 11456 ft | 2 kts | 183° |
| 2026-04-23 13:51 | 29.29513 | 90.89915 | 11456 ft | 2 kts | 212° |
| 2026-04-23 13:51 | 29.29522 | 90.89927 | 11456 ft | 0 kts | 269° |
| 2026-04-23 13:52 | 29.29521 | 90.89915 | 11456 ft | 5 kts | 255° |
| 2026-04-23 13:52 | 29.29516 | 90.89935 | 11458 ft | 7 kts | 80° |
| 2026-04-23 13:53 | 29.29562 | 90.90006 | 11458 ft | 17 kts | 14° |
| 2026-04-23 13:53 | 29.29622 | 90.89906 | 11454 ft | 20 kts | 271° |
| 2026-04-23 13:53 | 29.29619 | 90.89737 | 11458 ft | 23 kts | 269° |
| 2026-04-23 13:53 | 29.29616 | 90.89548 | 11458 ft | 25 kts | 269° |
| 2026-04-23 13:54 | 29.29613 | 90.89346 | 11458 ft | 25 kts | 269° |
| 2026-04-23 13:54 | 29.29612 | 90.89225 | 11458 ft | 11 kts | 271° |
| 2026-04-23 13:54 | 29.29681 | 90.89196 | 11449 ft | 12 kts | 357° |
| 2026-04-23 13:54 | 29.29766 | 90.89214 | 11456 ft | 13 kts | 48° |
| 2026-04-23 13:55 | 29.29778 | 90.89321 | 11456 ft | 16 kts | 89° |
| 2026-04-23 13:55 | 29.29783 | 90.89577 | 11459 ft | 52 kts | 89° |
| 2026-04-23 13:55 | 29.29791 | 90.90174 | 11458 ft | 98 kts | 89° |
| 2026-04-23 13:55 | 29.29806 | 90.91142 | 11455 ft | 145 kts | 89° |
| 2026-04-23 13:56 | 29.29827 | 90.92480 | 11432 ft | 190 kts | 89° |
| 2026-04-23 13:56 | 29.29853 | 90.94036 | 11888 ft | 192 kts | 89° |
| 2026-04-23 13:56 | 29.29873 | 90.95574 | 12683 ft | 193 kts | 89° |
| 2026-04-23 13:56 | 29.29894 | 90.97120 | 13260 ft | 194 kts | 90° |
| 2026-04-23 13:57 | 29.29915 | 90.98691 | 13367 ft | 202 kts | 90° |
| 2026-04-23 13:57 | 29.30015 | 91.00344 | 13445 ft | 214 kts | 81° |
| 2026-04-23 13:57 | 29.30396 | 91.02047 | 13522 ft | 228 kts | 70° |
| 2026-04-23 13:57 | 29.31081 | 91.03743 | 13596 ft | 242 kts | 62° |
| 2026-04-23 13:58 | 29.31688 | 91.05572 | 13672 ft | 256 kts | 76° |
| 2026-04-23 13:58 | 29.31923 | 91.07667 | 13734 ft | 274 kts | 90° |
| 2026-04-23 13:58 | 29.31671 | 91.09880 | 14038 ft | 284 kts | 105° |
| 2026-04-23 13:58 | 29.31120 | 91.12098 | 14294 ft | 298 kts | 104° |
| 2026-04-23 13:59 | 29.30651 | 91.14492 | 14414 ft | 317 kts | 100° |
| 2026-04-23 13:59 | 29.30306 | 91.17065 | 14527 ft | 335 kts | 97° |
| 2026-04-23 13:59 | 29.30089 | 91.19749 | 14639 ft | 351 kts | 95° |
| 2026-04-23 13:59 | 29.29885 | 91.22598 | 14766 ft | 366 kts | 95° |
| 2026-04-23 14:00 | 29.29741 | 91.24589 | 14847 ft | 376 kts | 95° |
| 2026-04-23 14:00 | 29.29444 | 91.28610 | 15201 ft | 386 kts | 95° |
| 2026-04-23 14:00 | 29.29425 | 91.31681 | 15661 ft | 387 kts | 80° |
| 2026-04-23 14:00 | 29.30209 | 91.34621 | 16137 ft | 388 kts | 64° |
| 2026-04-23 14:01 | 29.31676 | 91.37197 | 16615 ft | 388 kts | 47° |
| 2026-04-23 14:01 | 29.33759 | 91.39133 | 17110 ft | 387 kts | 28° |
| 2026-04-23 14:01 | 29.36266 | 91.40212 | 17612 ft | 387 kts | 9° |
| 2026-04-23 14:01 | 29.38943 | 91.40336 | 18113 ft | 386 kts | 352° |
| 2026-04-23 14:02 | 29.41522 | 91.39506 | 18562 ft | 387 kts | 334° |
| 2026-04-23 14:02 | 29.43764 | 91.37808 | 19011 ft | 388 kts | 317° |
| 2026-04-23 14:02 | 29.45451 | 91.35396 | 19455 ft | 390 kts | 299° |
| 2026-04-23 14:02 | 29.46426 | 91.32479 | 19789 ft | 398 kts | 282° |
| 2026-04-23 14:03 | 29.46550 | 91.29258 | 19873 ft | 414 kts | 263° |
| 2026-04-23 14:03 | 29.45944 | 91.25989 | 19887 ft | 422 kts | 258° |
| 2026-04-23 14:03 | 29.45256 | 91.22704 | 19885 ft | 425 kts | 257° |
| 2026-04-23 14:03 | 29.44562 | 91.19440 | 19813 ft | 413 kts | 257° |
| 2026-04-23 14:04 | 29.43902 | 91.16335 | 19691 ft | 389 kts | 257° |
| 2026-04-23 14:04 | 29.43287 | 91.13409 | 19574 ft | 365 kts | 258° |
| 2026-04-23 14:04 | 29.42715 | 91.10657 | 19459 ft | 345 kts | 259° |
| 2026-04-23 14:04 | 29.42175 | 91.08047 | 19332 ft | 327 kts | 259° |
| 2026-04-23 14:05 | 29.41665 | 91.05568 | 19125 ft | 314 kts | 259° |
| 2026-04-23 14:05 | 29.41172 | 91.03172 | 18789 ft | 303 kts | 259° |
| 2026-04-23 14:05 | 29.40695 | 91.00858 | 18462 ft | 294 kts | 259° |
| 2026-04-23 14:05 | 29.40228 | 90.98604 | 18117 ft | 285 kts | 259° |
| 2026-04-23 14:06 | 29.39775 | 90.96420 | 17743 ft | 278 kts | 259° |
| 2026-04-23 14:06 | 29.39336 | 90.94307 | 17422 ft | 268 kts | 259° |
| 2026-04-23 14:06 | 29.38911 | 90.92265 | 17035 ft | 260 kts | 258° |
| 2026-04-23 14:06 | 29.38497 | 90.90285 | 16695 ft | 251 kts | 258° |
| 2026-04-23 14:07 | 29.38104 | 90.88393 | 16342 ft | 244 kts | 258° |
| 2026-04-23 14:07 | 29.37479 | 90.84846 | 16054 ft | 213 kts | 263° |
| 2026-04-23 14:07 | 29.37310 | 90.83171 | 15773 ft | 210 kts | 266° |
| 2026-04-23 14:08 | 29.37144 | 90.81521 | 15491 ft | 204 kts | 263° |
| 2026-04-23 14:08 | 29.36907 | 90.79988 | 15238 ft | 186 kts | 260° |
| 2026-04-23 14:08 | 29.36627 | 90.78588 | 15016 ft | 176 kts | 257° |
| 2026-04-23 14:08 | 29.36246 | 90.77268 | 14800 ft | 175 kts | 243° |
| 2026-04-23 14:09 | 29.35502 | 90.76173 | 14749 ft | 175 kts | 222° |
| 2026-04-23 14:09 | 29.34467 | 90.75455 | 14356 ft | 173 kts | 200° |
| 2026-04-23 14:09 | 29.33286 | 90.75205 | 14169 ft | 174 kts | 179° |
| 2026-04-23 14:09 | 29.32106 | 90.75448 | 13967 ft | 173 kts | 158° |
| 2026-04-23 14:10 | 29.31081 | 90.76153 | 13756 ft | 172 kts | 137° |
| 2026-04-23 14:10 | 29.30339 | 90.77223 | 13582 ft | 173 kts | 117° |
| 2026-04-23 14:10 | 29.29982 | 90.78530 | 13403 ft | 174 kts | 96° |
| 2026-04-23 14:10 | 29.29997 | 90.79908 | 13140 ft | 173 kts | 89° |
| 2026-04-23 14:11 | 29.30007 | 90.81258 | 12890 ft | 172 kts | 90° |
| 2026-04-23 14:11 | 29.30025 | 90.82622 | 12697 ft | 172 kts | 89° |
| 2026-04-23 14:11 | 29.30040 | 90.83990 | 12477 ft | 171 kts | 90° |
| 2026-04-23 14:11 | 29.30064 | 90.85353 | 12070 ft | 170 kts | 88° |
| 2026-04-23 14:12 | 29.30094 | 90.86699 | 11826 ft | 169 kts | 89° |
| 2026-04-23 14:12 | 29.30101 | 90.88049 | 11641 ft | 169 kts | 88° |
| 2026-04-23 14:12 | 29.30122 | 90.89386 | 11470 ft | 160 kts | 89° |
| 2026-04-23 14:12 | 29.30142 | 90.90670 | 11641 ft | 166 kts | 89° |
| 2026-04-23 14:13 | 29.30156 | 90.92021 | 12074 ft | 173 kts | 90° |
| 2026-04-23 14:13 | 29.30155 | 90.93421 | 12747 ft | 177 kts | 90° |
| 2026-04-23 14:13 | 29.30172 | 90.94843 | 13271 ft | 181 kts | 89° |
| 2026-04-23 14:13 | 29.30200 | 90.96332 | 13347 ft | 192 kts | 89° |
| 2026-04-23 14:14 | 29.30229 | 90.97905 | 13424 ft | 204 kts | 89° |
| 2026-04-23 14:14 | 29.30258 | 90.99577 | 13502 ft | 217 kts | 89° |
| 2026-04-23 14:14 | 29.30325 | 91.01335 | 13572 ft | 231 kts | 81° |
| 2026-04-23 14:14 | 29.30811 | 91.03154 | 13645 ft | 246 kts | 64° |
| 2026-04-23 14:15 | 29.31533 | 91.04997 | 13724 ft | 261 kts | 71° |
| 2026-04-23 14:15 | 29.31891 | 91.07080 | 13918 ft | 271 kts | 86° |
| 2026-04-23 14:15 | 29.31786 | 91.09259 | 14301 ft | 276 kts | 101° |
| 2026-04-23 14:15 | 29.31293 | 91.11382 | 14848 ft | 276 kts | 105° |
| 2026-04-23 14:16 | 29.30829 | 91.13510 | 15423 ft | 275 kts | 101° |
| 2026-04-23 14:16 | 29.30478 | 91.15623 | 16002 ft | 273 kts | 98° |
| 2026-04-23 14:16 | 29.30240 | 91.17772 | 16598 ft | 271 kts | 95° |
| 2026-04-23 14:16 | 29.30087 | 91.19930 | 17122 ft | 273 kts | 94° |
| 2026-04-23 14:17 | 29.29930 | 91.22107 | 17621 ft | 275 kts | 94° |
| 2026-04-23 14:17 | 29.29766 | 91.24302 | 18133 ft | 278 kts | 94° |
| 2026-04-23 14:17 | 29.29600 | 91.26514 | 18587 ft | 280 kts | 94° |
| 2026-04-23 14:17 | 29.29434 | 91.28746 | 19036 ft | 282 kts | 94° |
| 2026-04-23 14:18 | 29.29268 | 91.30991 | 19497 ft | 283 kts | 93° |
| 2026-04-23 14:18 | 29.29100 | 91.33261 | 19821 ft | 292 kts | 92° |
| 2026-04-23 14:18 | 29.29278 | 91.35580 | 19896 ft | 294 kts | 69° |
| 2026-04-23 14:18 | 29.30293 | 91.37574 | 19906 ft | 290 kts | 42° |
| 2026-04-23 14:19 | 29.31943 | 91.38824 | 19910 ft | 285 kts | 16° |
| 2026-04-23 14:19 | 29.33887 | 91.39154 | 19913 ft | 283 kts | 359° |
| 2026-04-23 14:19 | 29.35833 | 91.39127 | 19912 ft | 284 kts | 357° |
| 2026-04-23 14:19 | 29.37804 | 91.39018 | 19908 ft | 283 kts | 349° |
| 2026-04-23 14:20 | 29.39678 | 91.38269 | 19916 ft | 294 kts | 327° |
| 2026-04-23 14:20 | 29.41201 | 91.36623 | 19900 ft | 313 kts | 303° |
| 2026-04-23 14:20 | 29.41980 | 91.34232 | 19900 ft | 333 kts | 276° |
| 2026-04-23 14:20 | 29.41884 | 91.31497 | 19898 ft | 354 kts | 265° |
| 2026-04-23 14:21 | 29.41612 | 91.28616 | 19894 ft | 373 kts | 264° |
| 2026-04-23 14:21 | 29.41308 | 91.25589 | 19896 ft | 391 kts | 264° |
| 2026-04-23 14:21 | 29.40993 | 91.22459 | 19895 ft | 397 kts | 264° |
| 2026-04-23 14:21 | 29.40682 | 91.19312 | 19430 ft | 398 kts | 264° |
| 2026-04-23 14:22 | 29.40376 | 91.16159 | 19317 ft | 398 kts | 265° |
| 2026-04-23 14:22 | 29.40078 | 91.13025 | 19064 ft | 388 kts | 265° |
| 2026-04-23 14:22 | 29.39790 | 91.10001 | 18589 ft | 375 kts | 265° |
| 2026-04-23 14:22 | 29.39515 | 91.07089 | 18153 ft | 361 kts | 265° |
| 2026-04-23 14:23 | 29.39249 | 91.04255 | 17268 ft | 362 kts | 265° |
| 2026-04-23 14:23 | 29.38982 | 91.01450 | 16998 ft | 344 kts | 265° |
| 2026-04-23 14:23 | 29.38728 | 90.98810 | 16863 ft | 322 kts | 265° |
| 2026-04-23 14:23 | 29.38490 | 90.96333 | 16747 ft | 304 kts | 265° |
| 2026-04-23 14:24 | 29.38263 | 90.93978 | 16620 ft | 291 kts | 265° |
| 2026-04-23 14:24 | 29.38045 | 90.91730 | 16507 ft | 276 kts | 265° |
| 2026-04-23 14:24 | 29.37842 | 90.89597 | 16395 ft | 261 kts | 265° |
| 2026-04-23 14:24 | 29.37664 | 90.87579 | 16307 ft | 245 kts | 266° |
| 2026-04-23 14:25 | 29.37510 | 90.85725 | 16157 ft | 227 kts | 266° |
| 2026-04-23 14:25 | 29.37370 | 90.83997 | 16011 ft | 211 kts | 266° |
| 2026-04-23 14:25 | 29.37285 | 90.82897 | 15813 ft | 198 kts | 266° |
| 2026-04-23 14:25 | 29.37061 | 90.80943 | 15493 ft | 178 kts | 262° |
| 2026-04-23 14:26 | 29.36834 | 90.79572 | 15288 ft | 174 kts | 259° |
| 2026-04-23 14:26 | 29.36553 | 90.78230 | 15073 ft | 173 kts | 256° |
| 2026-04-23 14:26 | 29.36097 | 90.76961 | 14808 ft | 174 kts | 235° |
| 2026-04-23 14:26 | 29.35223 | 90.76017 | 14782 ft | 174 kts | 214° |
| 2026-04-23 14:27 | 29.34520 | 90.75575 | 14479 ft | 174 kts | 204° |
| 2026-04-23 14:27 | 29.33359 | 90.75239 | 14220 ft | 172 kts | 184° |
| 2026-04-23 14:27 | 29.32172 | 90.75386 | 14082 ft | 173 kts | 163° |
| 2026-04-23 14:27 | 29.30779 | 90.76270 | 13807 ft | 172 kts | 136° |
| 2026-04-23 14:28 | 29.30263 | 90.76954 | 13660 ft | 172 kts | 124° |
| 2026-04-23 14:28 | 29.29766 | 90.78192 | 13481 ft | 172 kts | 104° |
| 2026-04-23 14:28 | 29.29659 | 90.79995 | 13231 ft | 171 kts | 89° |
| 2026-04-23 14:28 | 29.29673 | 90.80916 | 13025 ft | 171 kts | 89° |
| 2026-04-23 14:29 | 29.29701 | 90.82714 | 12700 ft | 169 kts | 89° |
| 2026-04-23 14:29 | 29.29696 | 90.83609 | 12554 ft | 170 kts | 92° |
| 2026-04-23 14:29 | 29.29692 | 90.84956 | 12297 ft | 169 kts | 89° |
| 2026-04-23 14:29 | 29.29733 | 90.86298 | 11975 ft | 168 kts | 88° |
| 2026-04-23 14:30 | 29.29755 | 90.87630 | 11728 ft | 167 kts | 87° |
| 2026-04-23 14:30 | 29.29774 | 90.88961 | 11529 ft | 166 kts | 89° |
| 2026-04-23 14:30 | 29.29793 | 90.90237 | 11459 ft | 147 kts | 90° |
| 2026-04-23 14:30 | 29.29816 | 90.91454 | 11461 ft | 172 kts | 89° |
| 2026-04-23 14:31 | 29.29845 | 90.92908 | 11710 ft | 188 kts | 89° |
| 2026-04-23 14:31 | 29.29878 | 90.94462 | 12193 ft | 204 kts | 89° |
| 2026-04-23 14:31 | 29.29895 | 90.96176 | 12621 ft | 227 kts | 90° |
| 2026-04-23 14:31 | 29.29914 | 90.98079 | 12948 ft | 251 kts | 90° |
| 2026-04-23 14:32 | 29.29995 | 91.00120 | 13347 ft | 265 kts | 82° |
| 2026-04-23 14:32 | 29.30439 | 91.02180 | 13680 ft | 269 kts | 69° |
| 2026-04-23 14:32 | 29.31233 | 91.04125 | 14153 ft | 271 kts | 65° |
| 2026-04-23 14:32 | 29.31797 | 91.06186 | 14663 ft | 273 kts | 80° |
| 2026-04-23 14:33 | 29.31897 | 91.08360 | 15194 ft | 275 kts | 95° |
| 2026-04-23 14:33 | 29.31521 | 91.10509 | 15732 ft | 276 kts | 106° |
| 2026-04-23 14:33 | 29.31010 | 91.12635 | 16280 ft | 277 kts | 102° |
| 2026-04-23 14:33 | 29.30608 | 91.14797 | 16836 ft | 278 kts | 99° |
| 2026-04-23 14:34 | 29.30319 | 91.16986 | 17404 ft | 278 kts | 96° |
| 2026-04-23 14:34 | 29.30134 | 91.19190 | 17982 ft | 278 kts | 94° |
| 2026-04-23 14:34 | 29.29974 | 91.21398 | 18518 ft | 278 kts | 94° |
| 2026-04-23 14:34 | 29.30046 | 91.23587 | 19037 ft | 274 kts | 72° |
| 2026-04-23 14:35 | 29.30906 | 91.25525 | 19299 ft | 279 kts | 46° |
| 2026-04-23 14:35 | 29.32463 | 91.26841 | 19415 ft | 281 kts | 19° |
| 2026-04-23 14:35 | 29.34368 | 91.27274 | 19531 ft | 281 kts | 2° |
| 2026-04-23 14:35 | 29.36327 | 91.27364 | 19644 ft | 282 kts | 360° |
| 2026-04-23 14:36 | 29.38287 | 91.27413 | 19777 ft | 282 kts | 360° |
| 2026-04-23 14:36 | 29.40254 | 91.27455 | 19882 ft | 283 kts | 360° |
| 2026-04-23 14:36 | 29.42203 | 91.27260 | 19903 ft | 282 kts | 342° |
| 2026-04-23 14:36 | 29.43980 | 91.26215 | 19912 ft | 298 kts | 319° |
| 2026-04-23 14:37 | 29.45286 | 91.24298 | 19909 ft | 317 kts | 294° |
| 2026-04-23 14:37 | 29.45734 | 91.21758 | 19903 ft | 339 kts | 267° |
| 2026-04-23 14:37 | 29.45288 | 91.19055 | 19875 ft | 360 kts | 257° |
| 2026-04-23 14:37 | 29.44658 | 91.16224 | 19216 ft | 372 kts | 256° |
| 2026-04-23 14:38 | 29.43976 | 91.13329 | 18718 ft | 373 kts | 256° |
| 2026-04-23 14:38 | 29.43298 | 91.10510 | 18445 ft | 357 kts | 256° |
| 2026-04-23 14:38 | 29.42659 | 91.07838 | 18109 ft | 342 kts | 256° |
| 2026-04-23 14:38 | 29.42037 | 91.05182 | 17226 ft | 345 kts | 256° |
| 2026-04-23 14:39 | 29.41430 | 91.02562 | 16921 ft | 333 kts | 256° |
| 2026-04-23 14:39 | 29.40852 | 91.00061 | 16785 ft | 315 kts | 256° |
| 2026-04-23 14:39 | 29.40309 | 90.97700 | 16665 ft | 298 kts | 257° |
| 2026-04-23 14:39 | 29.39798 | 90.95473 | 16561 ft | 280 kts | 257° |
| 2026-04-23 14:40 | 29.39318 | 90.93383 | 16433 ft | 263 kts | 256° |
| 2026-04-23 14:40 | 29.38873 | 90.91436 | 16409 ft | 242 kts | 257° |
| 2026-04-23 14:40 | 29.38454 | 90.89607 | 16273 ft | 231 kts | 257° |
| 2026-04-23 14:40 | 29.38055 | 90.87873 | 16183 ft | 219 kts | 257° |
| 2026-04-23 14:41 | 29.37704 | 90.86207 | 16095 ft | 213 kts | 260° |
| 2026-04-23 14:41 | 29.37455 | 90.84567 | 16007 ft | 212 kts | 263° |
| 2026-04-23 14:41 | 29.37292 | 90.82885 | 15721 ft | 210 kts | 266° |
| 2026-04-23 14:41 | 29.37117 | 90.81296 | 15473 ft | 191 kts | 262° |
| 2026-04-23 14:42 | 29.36885 | 90.79859 | 15236 ft | 177 kts | 259° |
| 2026-04-23 14:42 | 29.36607 | 90.78510 | 15028 ft | 172 kts | 256° |
| 2026-04-23 14:42 | 29.36219 | 90.77216 | 14811 ft | 172 kts | 242° |
| 2026-04-23 14:42 | 29.35475 | 90.76147 | 14760 ft | 173 kts | 221° |
| 2026-04-23 14:43 | 29.34451 | 90.75443 | 14371 ft | 171 kts | 200° |
| 2026-04-23 14:43 | 29.33280 | 90.75198 | 14185 ft | 172 kts | 180° |
| 2026-04-23 14:43 | 29.32111 | 90.75437 | 13986 ft | 171 kts | 159° |
| 2026-04-23 14:43 | 29.31098 | 90.76133 | 13776 ft | 170 kts | 137° |
| 2026-04-23 14:44 | 29.30361 | 90.77188 | 13600 ft | 171 kts | 118° |
| 2026-04-23 14:44 | 29.29993 | 90.78472 | 13426 ft | 171 kts | 97° |
| 2026-04-23 14:44 | 29.29981 | 90.79831 | 13228 ft | 170 kts | 89° |
| 2026-04-23 14:44 | 29.30003 | 90.81180 | 12929 ft | 169 kts | 89° |
| 2026-04-23 14:45 | 29.30020 | 90.82523 | 12602 ft | 168 kts | 89° |
| 2026-04-23 14:45 | 29.30023 | 90.83856 | 12433 ft | 169 kts | 90° |
| 2026-04-23 14:45 | 29.30032 | 90.85193 | 12168 ft | 167 kts | 88° |
| 2026-04-23 14:45 | 29.30085 | 90.86510 | 11933 ft | 168 kts | 87° |
| 2026-04-23 14:46 | 29.30098 | 90.87836 | 11644 ft | 166 kts | 89° |
| 2026-04-23 14:46 | 29.30117 | 90.89154 | 11478 ft | 164 kts | 88° |
| 2026-04-23 14:46 | 29.30138 | 90.90348 | 11463 ft | 147 kts | 89° |
| 2026-04-23 14:46 | 29.30157 | 90.91688 | 11534 ft | 181 kts | 89° |
| 2026-04-23 14:47 | 29.30166 | 90.93151 | 12062 ft | 185 kts | 89° |
| 2026-04-23 14:47 | 29.30174 | 90.94640 | 12845 ft | 189 kts | 89° |
| 2026-04-23 14:47 | 29.30194 | 90.96160 | 13331 ft | 196 kts | 89° |
| 2026-04-23 14:47 | 29.30224 | 90.97807 | 13448 ft | 215 kts | 89° |
| 2026-04-23 14:48 | 29.30255 | 90.99555 | 13525 ft | 230 kts | 89° |
| 2026-04-23 14:48 | 29.30336 | 91.01445 | 13587 ft | 247 kts | 81° |
| 2026-04-23 14:48 | 29.30887 | 91.03366 | 13652 ft | 263 kts | 64° |
| 2026-04-23 14:48 | 29.31606 | 91.05380 | 13776 ft | 281 kts | 75° |
| 2026-04-23 14:49 | 29.31902 | 91.07603 | 14192 ft | 284 kts | 89° |
| 2026-04-23 14:49 | 29.31684 | 91.09861 | 14645 ft | 287 kts | 104° |
| 2026-04-23 14:49 | 29.31143 | 91.12076 | 15106 ft | 289 kts | 104° |
| 2026-04-23 14:49 | 29.30695 | 91.14327 | 15574 ft | 291 kts | 100° |
| 2026-04-23 14:50 | 29.30365 | 91.16620 | 16045 ft | 293 kts | 97° |
| 2026-04-23 14:50 | 29.30154 | 91.18947 | 16524 ft | 295 kts | 94° |
| 2026-04-23 14:50 | 29.29983 | 91.21295 | 17013 ft | 297 kts | 94° |
| 2026-04-23 14:50 | 29.29811 | 91.23634 | 17511 ft | 299 kts | 94° |
| 2026-04-23 14:51 | 29.29633 | 91.26017 | 18019 ft | 302 kts | 94° |
| 2026-04-23 14:51 | 29.29454 | 91.28418 | 18486 ft | 304 kts | 94° |
| 2026-04-23 14:51 | 29.29276 | 91.30843 | 18936 ft | 306 kts | 94° |
| 2026-04-23 14:51 | 29.29099 | 91.33286 | 19392 ft | 309 kts | 94° |
| 2026-04-23 14:52 | 29.28987 | 91.35754 | 19791 ft | 314 kts | 84° |
| 2026-04-23 14:52 | 29.29559 | 91.38200 | 19905 ft | 327 kts | 60° |
| 2026-04-23 14:52 | 29.30985 | 91.40280 | 19928 ft | 342 kts | 38° |
| 2026-04-23 14:52 | 29.33092 | 91.41643 | 19926 ft | 357 kts | 16° |
| 2026-04-23 14:53 | 29.35591 | 91.42087 | 19932 ft | 373 kts | 1° |
| 2026-04-23 14:53 | 29.38244 | 91.42152 | 19932 ft | 388 kts | 359° |
| 2026-04-23 14:53 | 29.40972 | 91.41870 | 19930 ft | 399 kts | 345° |
| 2026-04-23 14:53 | 29.43531 | 91.40653 | 19932 ft | 401 kts | 327° |
| 2026-04-23 14:54 | 29.45625 | 91.38554 | 19929 ft | 402 kts | 309° |
| 2026-04-23 14:54 | 29.47027 | 91.35775 | 19919 ft | 404 kts | 291° |
| 2026-04-23 14:54 | 29.47580 | 91.32618 | 19918 ft | 406 kts | 272° |
| 2026-04-23 14:54 | 29.47235 | 91.29401 | 19919 ft | 409 kts | 257° |
| 2026-04-23 14:55 | 29.46550 | 91.26277 | 19917 ft | 408 kts | 257° |
| 2026-04-23 14:55 | 29.45857 | 91.23140 | 19440 ft | 406 kts | 257° |
| 2026-04-23 14:55 | 29.45160 | 91.20002 | 18914 ft | 404 kts | 256° |
| 2026-04-23 14:55 | 29.44470 | 91.16893 | 18452 ft | 400 kts | 256° |
| 2026-04-23 14:56 | 29.43790 | 91.13810 | 17945 ft | 396 kts | 257° |
| 2026-04-23 14:56 | 29.43121 | 91.10768 | 17462 ft | 390 kts | 257° |
| 2026-04-23 14:56 | 29.42465 | 91.07788 | 17196 ft | 378 kts | 257° |
| 2026-04-23 14:56 | 29.41830 | 91.04931 | 17121 ft | 361 kts | 257° |
| 2026-04-23 14:57 | 29.41220 | 91.02191 | 16992 ft | 348 kts | 257° |
| 2026-04-23 14:57 | 29.40632 | 90.99541 | 16857 ft | 337 kts | 257° |
| 2026-04-23 14:57 | 29.40064 | 90.96978 | 16725 ft | 327 kts | 257° |
| 2026-04-23 14:57 | 29.39512 | 90.94493 | 16602 ft | 317 kts | 257° |
| 2026-04-23 14:58 | 29.38975 | 90.92081 | 16476 ft | 307 kts | 257° |
| 2026-04-23 14:58 | 29.38455 | 90.89747 | 16380 ft | 296 kts | 257° |
| 2026-04-23 14:58 | 29.37959 | 90.87532 | 16269 ft | 277 kts | 257° |
| 2026-04-23 14:58 | 29.37564 | 90.85441 | 16159 ft | 259 kts | 262° |
| 2026-04-23 14:59 | 29.37330 | 90.83465 | 15954 ft | 241 kts | 266° |
| 2026-04-23 14:59 | 29.37159 | 90.81615 | 15630 ft | 226 kts | 263° |
| 2026-04-23 14:59 | 29.36900 | 90.79908 | 15361 ft | 210 kts | 259° |
| 2026-04-23 14:59 | 29.36578 | 90.78357 | 15100 ft | 190 kts | 256° |
| 2026-04-23 15:00 | 29.36092 | 90.77014 | 14776 ft | 178 kts | 236° |
| 2026-04-23 15:00 | 29.35255 | 90.76024 | 14733 ft | 173 kts | 217° |
| 2026-04-23 15:00 | 29.34199 | 90.75388 | 14353 ft | 171 kts | 197° |
| 2026-04-23 15:00 | 29.33025 | 90.75211 | 14190 ft | 171 kts | 178° |
| 2026-04-23 15:01 | 29.31862 | 90.75478 | 14058 ft | 171 kts | 158° |
| 2026-04-23 15:01 | 29.30822 | 90.76176 | 13911 ft | 177 kts | 140° |
| 2026-04-23 15:01 | 29.29987 | 90.77231 | 13754 ft | 180 kts | 123° |
| 2026-04-23 15:01 | 29.29490 | 90.78564 | 13565 ft | 185 kts | 101° |
| 2026-04-23 15:02 | 29.29453 | 90.79534 | 13412 ft | 183 kts | 83° |
| 2026-04-23 15:02 | 29.29648 | 90.81390 | 13058 ft | 171 kts | 86° |
| 2026-04-23 15:02 | 29.29689 | 90.82734 | 12793 ft | 167 kts | 89° |
| 2026-04-23 15:02 | 29.29686 | 90.84058 | 12552 ft | 167 kts | 89° |
| 2026-04-23 15:03 | 29.29694 | 90.85408 | 12309 ft | 172 kts | 88° |
| 2026-04-23 15:03 | 29.29746 | 90.86785 | 11921 ft | 173 kts | 85° |
| 2026-04-23 15:03 | 29.29752 | 90.88146 | 11677 ft | 170 kts | 88° |
| 2026-04-23 15:03 | 29.29779 | 90.89484 | 11475 ft | 164 kts | 88° |
| 2026-04-23 15:04 | 29.29799 | 90.90671 | 11461 ft | 143 kts | 89° |
| 2026-04-23 15:04 | 29.29821 | 90.91996 | 11446 ft | 189 kts | 89° |
| 2026-04-23 15:04 | 29.29845 | 90.93543 | 11971 ft | 192 kts | 89° |
| 2026-04-23 15:04 | 29.29866 | 90.95088 | 12843 ft | 194 kts | 89° |
| 2026-04-23 15:05 | 29.29889 | 90.96639 | 13345 ft | 198 kts | 89° |
| 2026-04-23 15:05 | 29.29914 | 90.98255 | 13419 ft | 212 kts | 89° |
| 2026-04-23 15:05 | 29.29980 | 91.00010 | 13499 ft | 228 kts | 83° |
| 2026-04-23 15:05 | 29.30336 | 91.01849 | 13573 ft | 245 kts | 71° |
| 2026-04-23 15:06 | 29.31051 | 91.03695 | 13687 ft | 261 kts | 63° |
| 2026-04-23 15:06 | 29.31703 | 91.05653 | 14135 ft | 266 kts | 76° |
| 2026-04-23 15:06 | 29.31924 | 91.07761 | 14659 ft | 268 kts | 91° |
| 2026-04-23 15:06 | 29.31683 | 91.09884 | 15201 ft | 271 kts | 105° |
| 2026-04-23 15:07 | 29.31160 | 91.11969 | 15747 ft | 273 kts | 104° |
| 2026-04-23 15:07 | 29.30723 | 91.14094 | 16296 ft | 275 kts | 100° |
| 2026-04-23 15:07 | 29.30388 | 91.16287 | 16651 ft | 287 kts | 97° |
| 2026-04-23 15:07 | 29.30170 | 91.18601 | 17049 ft | 295 kts | 94° |
| 2026-04-23 15:08 | 29.30099 | 91.21000 | 17306 ft | 310 kts | 82° |
| 2026-04-23 15:08 | 29.30790 | 91.23382 | 17484 ft | 324 kts | 57° |
| 2026-04-23 15:08 | 29.32322 | 91.25265 | 17972 ft | 326 kts | 33° |
| 2026-04-23 15:09 | 29.36677 | 91.26522 | 18894 ft | 332 kts | 0° |
| 2026-04-23 15:09 | 29.39001 | 91.26569 | 19347 ft | 337 kts | 360° |
| 2026-04-23 15:09 | 29.41350 | 91.26416 | 19772 ft | 342 kts | 347° |
| 2026-04-23 15:09 | 29.43598 | 91.25408 | 19899 ft | 356 kts | 327° |
| 2026-04-23 15:10 | 29.44901 | 91.24232 | 19625 ft | 363 kts | 313° |
| 2026-04-23 15:10 | 29.46439 | 91.20856 | 19258 ft | 356 kts | 282° |
| 2026-04-23 15:10 | 29.46571 | 91.18106 | 19139 ft | 346 kts | 263° |
| 2026-04-23 15:10 | 29.45989 | 91.15480 | 19020 ft | 335 kts | 253° |
| 2026-04-23 15:11 | 29.45300 | 91.12980 | 18905 ft | 323 kts | 253° |
| 2026-04-23 15:11 | 29.44624 | 91.10558 | 18792 ft | 313 kts | 253° |
| 2026-04-23 15:11 | 29.43963 | 91.08216 | 18337 ft | 310 kts | 253° |
| 2026-04-23 15:11 | 29.43291 | 91.05841 | 17538 ft | 316 kts | 253° |
| 2026-04-23 15:12 | 29.42088 | 91.01592 | 16875 ft | 301 kts | 253° |
| 2026-04-23 15:12 | 29.41446 | 90.99329 | 16751 ft | 295 kts | 253° |
| 2026-04-23 15:12 | 29.40815 | 90.97098 | 16635 ft | 293 kts | 253° |
| 2026-04-23 15:13 | 29.40199 | 90.94911 | 16528 ft | 292 kts | 253° |
| 2026-04-23 15:13 | 29.39574 | 90.92702 | 16417 ft | 291 kts | 253° |
| 2026-04-23 15:13 | 29.38949 | 90.90493 | 16334 ft | 291 kts | 253° |
| 2026-04-23 15:13 | 29.38325 | 90.88289 | 16215 ft | 290 kts | 253° |
| 2026-04-23 15:14 | 29.37738 | 90.86082 | 16098 ft | 286 kts | 257° |
| 2026-04-23 15:14 | 29.37381 | 90.83902 | 15937 ft | 270 kts | 264° |
| 2026-04-23 15:14 | 29.37187 | 90.81817 | 15566 ft | 256 kts | 263° |
| 2026-04-23 15:14 | 29.36896 | 90.79879 | 15300 ft | 238 kts | 259° |
| 2026-04-23 15:15 | 29.36512 | 90.78090 | 14979 ft | 223 kts | 255° |
| 2026-04-23 15:15 | 29.34874 | 90.75673 | 14490 ft | 186 kts | 209° |
| 2026-04-23 15:15 | 29.33691 | 90.75238 | 14250 ft | 175 kts | 187° |
| 2026-04-23 15:16 | 29.32494 | 90.75313 | 14058 ft | 172 kts | 166° |
| 2026-04-23 15:16 | 29.31412 | 90.75857 | 13860 ft | 169 kts | 145° |
| 2026-04-23 15:16 | 29.30576 | 90.76790 | 13667 ft | 168 kts | 125° |
| 2026-04-23 15:16 | 29.30080 | 90.77999 | 13503 ft | 169 kts | 104° |
| 2026-04-23 15:17 | 29.29970 | 90.79327 | 13322 ft | 168 kts | 87° |
| 2026-04-23 15:17 | 29.29994 | 90.80661 | 13068 ft | 167 kts | 89° |
| 2026-04-23 15:17 | 29.30014 | 90.81986 | 12766 ft | 166 kts | 89° |
| 2026-04-23 15:17 | 29.30033 | 90.83303 | 12504 ft | 165 kts | 89° |
| 2026-04-23 15:18 | 29.30053 | 90.84615 | 12287 ft | 165 kts | 89° |
| 2026-04-23 15:18 | 29.30073 | 90.85926 | 12046 ft | 165 kts | 88° |
| 2026-04-23 15:18 | 29.30090 | 90.87236 | 11762 ft | 163 kts | 89° |
| 2026-04-23 15:18 | 29.30104 | 90.88523 | 11547 ft | 162 kts | 87° |
| 2026-04-23 15:19 | 29.30127 | 90.89775 | 11462 ft | 145 kts | 89° |
| 2026-04-23 15:19 | 29.30139 | 90.90590 | 11460 ft | 59 kts | 89° |
| 2026-04-23 15:19 | 29.30145 | 90.90949 | 11467 ft | 46 kts | 89° |
| 2026-04-23 15:19 | 29.30153 | 90.91332 | 11463 ft | 50 kts | 88° |